• location
  • image
mod_vvisit_countermod_vvisit_countermod_vvisit_countermod_vvisit_countermod_vvisit_countermod_vvisit_counter
mod_vvisit_counterToday743
mod_vvisit_counterYesterday1401
mod_vvisit_counterThis week4048
mod_vvisit_counterLast week7395
mod_vvisit_counterThis month19842
mod_vvisit_counterLast month21779
mod_vvisit_counterAll days561698

We have: 16 guests, 1 bots online
Your IP: 54.205.203.188
 , 
Today: Feb 23, 2017
Airport

AP V2 EN

 

 

You can watch a film about services of Siauliai International Airport

Today

Thursday, 23 February 2017

Weather Forecast

Siauliai °C
   

Aviation Weather Forecast

[source: ADDS]
METAR
EYSA 231550Z 24009KT CAVOK 01/M01 Q0989 R32R/29//95 R32L/29//95 BLU NOSIG =
TAF
TAF EYSA 231400Z 2315/2324 26012KT 9000 SCT020 BECMG 2321/2322 VRB02KT 3000 SNRA OVC010 TEMPO 2322/2324 0700 +SN OVC005 =
SR / SS: 05:30 / 15:52 UTC (EYSA 2017-02-23)

Search

Who's Online

We have 9 guests online

tic logo en